Time;durP1;ratioP1;P1;durP2;ratioP2;P2;SDS_P1;SDS_P2;PMS_P1;PMS_P2;Temp;Humidity;BMP_temperature;BMP_pressure;BME280_temperature;BME280_humidity;BME280_pressure;Samples;Min_cycle;Max_cycle;Signal;HPM_P1;HPM_P2
2023/09/20 00:01:09;;;;;;;4.82;2.63;;;;;;;16.52;95.60;100828.88;6219154;23;20439;-81
2023/09/20 00:03:35;;;;;;;6.10;2.40;;;;;;;16.54;95.16;100828.41;6218573;23;20088;-81
2023/09/20 00:06:02;;;;;;;4.38;2.33;;;;;;;16.54;95.20;100821.09;6219366;23;20028;-81
2023/09/20 00:08:29;;;;;;;4.93;2.67;;;;;;;16.55;95.10;100814.50;6218761;23;20013;-81
2023/09/20 00:10:56;;;;;;;6.85;3.03;;;;;;;16.54;95.48;100821.09;6193125;23;20068;-81
2023/09/20 00:13:23;;;;;;;8.30;2.95;;;;;;;16.53;95.43;100814.22;6218565;23;20399;-81
2023/09/20 00:15:54;;;;;;;6.45;2.35;;;;;;;16.53;95.02;100819.59;6219379;23;20021;-82
2023/09/20 00:18:25;;;;;;;6.35;2.60;;;;;;;16.58;95.38;100815.50;6217889;23;20024;-82
2023/09/20 00:20:51;;;;;;;5.35;2.83;;;;;;;16.58;95.39;100816.22;6219817;23;20017;-81
2023/09/20 00:23:21;;;;;;;7.78;2.80;;;;;;;16.57;95.08;100809.38;6218862;23;20013;-81
2023/09/20 00:25:49;;;;;;;7.90;2.95;;;;;;;16.55;95.31;100809.13;6219455;23;20456;-81
2023/09/20 00:28:19;;;;;;;5.88;2.75;;;;;;;16.55;96.06;100811.06;6219006;23;20037;-81
2023/09/20 00:30:45;;;;;;;6.90;2.67;;;;;;;16.56;95.51;100810.59;6219224;23;20539;-81
2023/09/20 00:33:12;;;;;;;6.63;2.65;;;;;;;16.51;95.03;100813.97;6218482;23;20024;-81
2023/09/20 00:35:41;;;;;;;11.55;2.80;;;;;;;16.52;95.64;100812.75;6219128;23;20021;-81
2023/09/20 00:38:08;;;;;;;8.95;3.03;;;;;;;16.51;95.18;100807.88;6191475;23;20032;-82
2023/09/20 00:40:37;;;;;;;5.00;2.72;;;;;;;16.51;95.76;100802.50;6192282;23;20013;-81
2023/09/20 00:43:06;;;;;;;6.10;2.75;;;;;;;16.48;95.75;100801.50;6219304;23;20403;-83
2023/09/20 00:45:38;;;;;;;4.75;2.30;;;;;;;16.47;96.15;100805.41;6191351;23;20096;-82
2023/09/20 00:48:07;;;;;;;8.40;2.83;;;;;;;16.45;95.71;100802.44;6219517;23;20013;-82
2023/09/20 00:50:41;;;;;;;6.22;2.90;;;;;;;16.42;95.77;100797.28;6191712;23;20347;-81
2023/09/20 00:53:11;;;;;;;2.80;2.10;;;;;;;16.40;95.75;100794.34;6218732;23;20088;-81
2023/09/20 00:55:38;;;;;;;9.75;2.97;;;;;;;16.37;95.94;100798.75;6219092;23;20057;-82
2023/09/20 00:58:09;;;;;;;6.97;2.58;;;;;;;16.33;96.02;100801.66;6219471;23;20092;-81
2023/09/20 01:00:40;;;;;;;7.07;2.28;;;;;;;16.28;96.60;100796.25;6218397;23;20474;-80
2023/09/20 01:03:06;;;;;;;11.45;2.78;;;;;;;16.24;96.55;100804.50;6192197;23;20024;-80
2023/09/20 01:05:37;;;;;;;6.03;2.80;;;;;;;16.20;96.52;100803.97;6218528;23;20021;-81
2023/09/20 01:08:06;;;;;;;5.47;2.88;;;;;;;16.19;97.44;100807.88;6218964;23;20071;-80
2023/09/20 01:10:36;;;;;;;7.03;3.03;;;;;;;16.18;96.48;100803.00;6218848;23;20452;-80
2023/09/20 01:13:05;;;;;;;9.90;2.90;;;;;;;16.17;97.05;100796.16;6219227;23;20023;-81
2023/09/20 01:15:33;;;;;;;7.78;2.53;;;;;;;16.15;96.78;100796.63;6218431;23;20092;-80
2023/09/20 01:18:01;;;;;;;9.43;3.00;;;;;;;16.13;96.93;100793.66;6219329;23;20021;-81
2023/09/20 01:20:29;;;;;;;6.20;2.95;;;;;;;16.09;97.24;100797.78;6218763;23;20013;-81
2023/09/20 01:22:58;;;;;;;7.10;2.70;;;;;;;16.05;97.78;100789.94;6221110;23;20025;-80
2023/09/20 01:25:35;;;;;;;15.80;3.50;;;;;;;16.04;98.04;100795.78;6220041;23;20025;-81
2023/09/20 01:28:04;;;;;;;6.75;3.20;;;;;;;16.01;98.27;100794.78;6222603;23;20048;-81
2023/09/20 01:30:35;;;;;;;9.02;3.17;;;;;;;15.98;98.27;100785.75;6218261;23;20013;-80
2023/09/20 01:33:04;;;;;;;8.32;3.00;;;;;;;15.95;98.08;100786.69;6219506;23;20017;-81
2023/09/20 01:35:32;;;;;;;11.05;2.90;;;;;;;15.94;98.77;100792.53;6218982;23;20021;-81
2023/09/20 01:37:59;;;;;;;5.53;2.75;;;;;;;15.91;99.02;100780.81;6219148;23;20027;-81
2023/09/20 01:40:26;;;;;;;8.55;2.97;;;;;;;15.88;98.31;100779.06;6218170;23;20017;-80
2023/09/20 01:42:53;;;;;;;7.40;2.80;;;;;;;15.87;98.82;100777.59;6219007;23;20449;-82
2023/09/20 01:45:20;;;;;;;8.40;3.05;;;;;;;15.85;98.84;100765.84;6217467;23;20473;-80
2023/09/20 01:47:51;;;;;;;7.63;2.88;;;;;;;15.83;98.71;100765.59;6218633;23;20411;-80
2023/09/20 01:50:25;;;;;;;6.43;2.80;;;;;;;15.80;99.02;100775.34;6191323;23;20032;-80
2023/09/20 01:52:54;;;;;;;11.43;3.05;;;;;;;15.79;98.96;100767.75;6191999;23;20021;-80
2023/09/20 01:55:23;;;;;;;3.30;2.15;;;;;;;15.77;98.72;100772.84;6217873;23;20017;-80
2023/09/20 01:57:51;;;;;;;8.10;3.33;;;;;;;15.74;98.98;100766.50;6218849;23;20076;-80
2023/09/20 02:00:22;;;;;;;10.50;3.22;;;;;;;15.72;99.43;100768.91;6191372;23;20017;-80
2023/09/20 02:02:51;;;;;;;7.22;2.80;;;;;;;15.72;99.14;100774.28;6218662;23;20094;-82
2023/09/20 02:05:18;;;;;;;10.57;2.80;;;;;;;15.72;99.46;100768.91;6191102;23;20027;-81
2023/09/20 02:07:46;;;;;;;8.48;3.30;;;;;;;15.71;99.26;100769.38;6218775;23;20121;-81
2023/09/20 02:10:14;;;;;;;7.35;3.08;;;;;;;15.75;99.10;100772.59;6166651;23;20028;-81
2023/09/20 02:12:48;;;;;;;6.07;2.88;;;;;;;15.80;99.07;100771.91;6217822;23;20333;-82
2023/09/20 02:15:15;;;;;;;6.95;2.58;;;;;;;15.81;98.66;100768.00;6191610;23;20025;-81
2023/09/20 02:17:41;;;;;;;3.88;2.55;;;;;;;15.84;98.93;100765.13;6191119;23;20021;-80
2023/09/20 02:20:09;;;;;;;8.73;3.13;;;;;;;15.86;98.96;100767.34;6218993;23;20016;-80
2023/09/20 02:22:40;;;;;;;5.88;2.88;;;;;;;15.87;98.60;100772.22;6219540;23;20020;-81
2023/09/20 02:25:11;;;;;;;9.77;2.75;;;;;;;15.91;98.36;100774.69;6219448;23;20530;-80
2023/09/20 02:27:40;;;;;;;9.70;2.85;;;;;;;15.93;98.48;100767.66;6219088;23;20063;-81
2023/09/20 02:30:14;;;;;;;5.72;3.05;;;;;;;15.95;98.00;100767.16;6219513;23;20021;-80
2023/09/20 02:32:50;;;;;;;9.50;2.83;;;;;;;15.97;97.24;100757.44;6192778;23;20455;-80
2023/09/20 02:35:17;;;;;;;9.38;2.92;;;;;;;16.00;96.92;100755.72;6219609;23;20021;-79
2023/09/20 02:37:43;;;;;;;6.65;2.90;;;;;;;16.05;97.32;100756.97;6192857;23;20088;-79
2023/09/20 02:40:13;;;;;;;9.98;2.90;;;;;;;16.06;96.11;100756.50;6192524;23;20017;-79
2023/09/20 02:42:52;;;;;;;11.90;3.50;;;;;;;16.07;96.54;100751.88;6218774;23;20017;-79
2023/09/20 02:45:20;;;;;;;8.15;2.75;;;;;;;16.06;96.77;100742.34;6192445;23;20025;-80
2023/09/20 02:47:47;;;;;;;8.82;2.63;;;;;;;16.02;96.19;100751.34;6220393;23;20076;-79
2023/09/20 02:50:18;;;;;;;9.25;2.67;;;;;;;15.98;96.46;100744.75;6167783;23;20024;-79
2023/09/20 02:52:47;;;;;;;7.13;2.92;;;;;;;15.95;96.28;100741.06;6192803;23;20105;-79
2023/09/20 02:55:17;;;;;;;5.85;2.85;;;;;;;15.92;96.21;100733.97;6219748;23;20017;-79
2023/09/20 02:57:44;;;;;;;4.95;2.95;;;;;;;15.91;96.01;100737.13;6219664;23;20021;-79
2023/09/20 03:00:16;;;;;;;6.35;2.90;;;;;;;15.92;96.14;100727.84;6194382;23;20451;-81
2023/09/20 03:02:52;;;;;;;6.07;2.95;;;;;;;15.90;96.42;100728.31;6193190;23;20028;-79
2023/09/20 03:05:21;;;;;;;8.40;2.90;;;;;;;15.88;96.17;100721.97;6192265;23;20416;-79
2023/09/20 03:07:50;;;;;;;5.60;2.20;;;;;;;15.85;96.44;100726.34;6192632;23;20025;-80
2023/09/20 03:10:21;;;;;;;6.30;2.75;;;;;;;15.82;96.74;100718.50;6192377;23;20100;-79
2023/09/20 03:12:51;;;;;;;11.52;2.58;;;;;;;15.79;96.93;100724.81;6193537;23;20017;-80
2023/09/20 03:15:23;;;;;;;4.95;2.35;;;;;;;15.76;97.50;100723.06;6219183;23;20021;-79
2023/09/20 03:17:56;;;;;;;7.47;2.90;;;;;;;15.74;97.18;100715.50;6192950;23;20433;-80
2023/09/20 03:20:24;;;;;;;5.70;2.67;;;;;;;15.72;97.72;100709.88;6219060;23;20017;-80
2023/09/20 03:23:00;;;;;;;4.40;2.60;;;;;;;15.71;97.45;100713.03;6193041;23;20435;-80
2023/09/20 03:25:36;;;;;;;4.88;2.70;;;;;;;15.68;97.02;100710.06;6192052;23;20017;-80
2023/09/20 03:28:22;;;;;;;3.88;2.65;;;;;;;15.70;97.25;100714.22;6192133;23;20071;-80
2023/09/20 03:30:51;;;;;;;4.60;2.55;;;;;;;15.67;97.45;100713.97;6192806;23;20088;-80
2023/09/20 03:33:21;;;;;;;7.28;2.70;;;;;;;15.65;97.65;100711.03;6192099;23;20049;-79
2023/09/20 03:35:48;;;;;;;6.72;2.35;;;;;;;15.63;97.72;100715.38;6219731;23;20017;-80
2023/09/20 03:38:15;;;;;;;3.92;2.90;;;;;;;15.62;97.74;100709.28;6192353;23;20021;-81
2023/09/20 03:40:42;;;;;;;4.07;2.25;;;;;;;15.63;97.87;100702.72;6218519;23;20013;-80
2023/09/20 03:43:09;;;;;;;6.13;2.50;;;;;;;15.63;98.06;100700.03;6192688;23;20028;-80
2023/09/20 03:45:42;;;;;;;6.63;2.50;;;;;;;15.61;98.13;100697.09;6192550;23;20024;-79
2023/09/20 03:48:08;;;;;;;8.18;2.50;;;;;;;15.61;98.29;100689.03;6192635;23;20017;-79
2023/09/20 03:50:38;;;;;;;7.07;2.28;;;;;;;15.59;98.60;100683.44;6192416;23;20017;-79
2023/09/20 03:53:05;;;;;;;3.17;2.22;;;;;;;15.58;99.14;100686.59;6192500;23;20025;-79
2023/09/20 03:55:33;;;;;;;4.65;2.40;;;;;;;15.58;98.76;100683.91;6191979;23;20352;-80
2023/09/20 03:58:00;;;;;;;4.20;2.42;;;;;;;15.58;99.35;100675.84;6192456;23;20099;-80
2023/09/20 04:00:28;;;;;;;5.45;2.65;;;;;;;15.58;99.86;100681.97;6192132;23;20028;-80
2023/09/20 04:02:58;;;;;;;4.50;1.95;;;;;;;15.59;99.61;100678.06;6192666;23;20017;-80
2023/09/20 04:05:26;;;;;;;4.15;2.20;;;;;;;15.59;99.72;100680.00;6191727;23;20494;-80
2023/09/20 04:08:12;;;;;;;6.38;2.70;;;;;;;15.60;99.40;100679.50;6219191;23;20076;-80
2023/09/20 04:10:40;;;;;;;4.78;2.33;;;;;;;15.62;99.44;100682.47;6191432;23;20475;-80
2023/09/20 04:13:08;;;;;;;7.70;2.50;;;;;;;15.63;99.78;100681.25;6219344;23;20432;-79
2023/09/20 04:15:37;;;;;;;5.28;2.83;;;;;;;15.64;99.84;100672.00;6192149;23;20194;-80
2023/09/20 04:18:08;;;;;;;7.35;2.30;;;;;;;15.66;99.56;100666.16;6219588;23;20331;-80
2023/09/20 04:20:35;;;;;;;4.68;2.50;;;;;;;15.66;99.48;100669.56;6219456;23;20013;-82
2023/09/20 04:23:02;;;;;;;9.02;2.42;;;;;;;15.68;99.41;100671.78;6192042;23;20021;-80
2023/09/20 04:25:29;;;;;;;6.53;2.50;;;;;;;15.69;99.37;100673.25;6191847;23;20398;-80
2023/09/20 04:27:56;;;;;;;8.02;2.53;;;;;;;15.71;99.70;100664.72;6219779;23;20021;-80
2023/09/20 04:30:23;;;;;;;4.07;2.20;;;;;;;15.70;99.70;100665.94;6191664;23;20096;-80
2023/09/20 04:32:51;;;;;;;3.97;2.15;;;;;;;15.71;99.65;100672.78;6192601;23;20885;-80
2023/09/20 04:35:26;;;;;;;6.03;2.50;;;;;;;15.69;99.32;100662.50;6191589;23;20029;-80
2023/09/20 04:37:53;;;;;;;2.83;2.10;;;;;;;15.72;99.72;100663.50;6191647;23;20087;-79
2023/09/20 04:40:21;;;;;;;4.95;2.47;;;;;;;15.72;99.34;100660.81;6192231;23;20057;-80
2023/09/20 04:42:48;;;;;;;6.22;2.38;;;;;;;15.74;99.20;100659.13;6167781;23;20419;-80
2023/09/20 04:45:15;;;;;;;4.88;2.20;;;;;;;15.74;99.60;100663.78;6218980;23;20025;-80
2023/09/20 04:47:42;;;;;;;6.20;2.13;;;;;;;15.74;99.37;100664.50;6167235;23;20024;-82
2023/09/20 04:50:11;;;;;;;4.03;2.15;;;;;;;15.77;99.15;100665.50;6192047;23;20056;-80
2023/09/20 04:52:38;;;;;;;8.35;2.63;;;;;;;15.79;99.11;100663.81;6191343;23;20029;-79
2023/09/20 04:55:05;;;;;;;8.75;2.67;;;;;;;15.81;99.30;100663.34;6192389;23;20025;-80
2023/09/20 04:57:33;;;;;;;4.88;2.17;;;;;;;15.82;98.36;100672.88;6167272;23;20016;-81
2023/09/20 04:59:59;;;;;;;5.93;2.33;;;;;;;15.86;98.37;100676.06;6219310;23;20020;-80
2023/09/20 05:02:29;;;;;;;4.10;2.63;;;;;;;15.86;98.77;100676.81;6167128;23;20035;-80
2023/09/20 05:04:57;;;;;;;3.35;2.38;;;;;;;15.86;99.22;100674.13;6192236;23;20028;-80
2023/09/20 05:07:26;;;;;;;6.07;2.55;;;;;;;15.87;99.19;100672.19;6191594;23;20017;-80
2023/09/20 05:09:53;;;;;;;3.25;2.20;;;;;;;15.86;98.73;100682.19;6192330;23;20084;-81
2023/09/20 05:12:20;;;;;;;5.80;2.20;;;;;;;15.87;98.20;100680.22;6218707;23;20021;-81
2023/09/20 05:14:49;;;;;;;2.95;2.60;;;;;;;15.87;98.10;100672.19;6193075;23;20028;-80
2023/09/20 05:17:18;;;;;;;5.65;2.58;;;;;;;15.87;98.28;100669.50;6191837;23;20096;-81
2023/09/20 05:19:45;;;;;;;4.80;2.67;;;;;;;15.86;98.21;100671.44;6191036;23;20017;-81
2023/09/20 05:22:12;;;;;;;3.75;2.17;;;;;;;15.86;98.32;100676.81;6217266;23;20058;-80
2023/09/20 05:24:39;;;;;;;10.32;2.53;;;;;;;15.87;97.96;100674.84;6191606;23;20045;-79
2023/09/20 05:27:06;;;;;;;5.45;2.40;;;;;;;15.87;97.68;100670.22;6191977;23;20045;-78
2023/09/20 05:29:33;;;;;;;6.53;2.70;;;;;;;15.89;97.46;100664.38;6191464;23;20371;-78
2023/09/20 05:32:00;;;;;;;4.68;2.55;;;;;;;15.88;97.77;100658.28;6191964;23;20052;-81
2023/09/20 05:34:28;;;;;;;4.97;2.55;;;;;;;15.89;97.56;100664.38;6218341;23;20075;-81
2023/09/20 05:36:55;;;;;;;9.77;2.60;;;;;;;15.87;97.84;100661.44;6218391;23;20025;-81
2023/09/20 05:39:22;;;;;;;4.95;2.63;;;;;;;15.88;97.92;100662.91;6218180;23;20075;-80
2023/09/20 05:41:49;;;;;;;9.05;3.47;;;;;;;15.86;97.52;100663.38;6218625;23;20415;-79
2023/09/20 05:44:15;;;;;;;4.47;2.40;;;;;;;15.87;97.73;100658.75;6191578;23;20447;-78
2023/09/20 05:46:42;;;;;;;7.43;2.47;;;;;;;15.85;97.61;100661.19;6218719;23;20447;-85
2023/09/20 05:49:09;;;;;;;8.55;2.92;;;;;;;15.86;97.69;100651.91;6219765;23;20020;-84
2023/09/20 05:51:37;;;;;;;3.20;2.22;;;;;;;15.89;97.22;100659.75;6191459;23;20079;-85
2023/09/20 05:54:04;;;;;;;7.88;3.20;;;;;;;15.90;97.95;100655.84;6218995;23;20025;-84
2023/09/20 05:56:32;;;;;;;3.53;2.70;;;;;;;15.93;97.31;100659.53;6219580;23;20414;-85
2023/09/20 05:59:00;;;;;;;7.53;3.00;;;;;;;15.93;97.79;100657.59;6220076;23;20067;-78
2023/09/20 06:01:30;;;;;;;7.15;2.90;;;;;;;15.96;97.11;100662.00;6192813;23;20020;-84
2023/09/20 06:03:57;;;;;;;5.13;2.88;;;;;;;15.98;96.93;100658.84;6219953;23;20021;-84
2023/09/20 06:06:24;;;;;;;6.90;3.10;;;;;;;15.99;97.35;100658.34;6167283;23;20013;-81
2023/09/20 06:08:51;;;;;;;7.72;3.20;;;;;;;16.03;97.14;100660.78;6220345;23;20041;-81
2023/09/20 06:11:19;;;;;;;3.95;2.97;;;;;;;16.05;97.15;100653.00;6193491;23;20045;-85
2023/09/20 06:13:46;;;;;;;3.83;2.72;;;;;;;16.08;97.02;100651.31;6193819;23;20028;-82
2023/09/20 06:16:12;;;;;;;4.60;2.65;;;;;;;16.11;96.27;100653.03;6193131;23;20024;-79
2023/09/20 06:18:40;;;;;;;5.97;2.70;;;;;;;16.16;97.04;100653.06;6219593;23;20025;-79
2023/09/20 06:21:20;;;;;;;8.18;2.80;;;;;;;16.23;96.54;100659.94;6197658;23;20421;-80
2023/09/20 06:23:46;;;;;;;8.27;2.25;;;;;;;16.28;97.08;100656.56;6220287;23;20068;-81
2023/09/20 06:26:14;;;;;;;7.22;2.72;;;;;;;16.28;96.75;100657.31;6192978;23;20021;-83
2023/09/20 06:28:41;;;;;;;6.93;2.88;;;;;;;16.30;96.49;100648.75;6193214;23;20096;-80
2023/09/20 06:31:14;;;;;;;8.38;3.10;;;;;;;16.33;96.19;100656.59;6219699;23;20187;-79
2023/09/20 06:33:43;;;;;;;5.88;2.50;;;;;;;16.35;96.03;100656.13;6192286;23;20021;-80
2023/09/20 06:36:17;;;;;;;5.63;2.70;;;;;;;16.41;96.54;100656.13;6219662;23;20017;-82
2023/09/20 06:38:44;;;;;;;3.45;2.40;;;;;;;16.44;96.26;100647.09;6192696;23;20051;-83
2023/09/20 06:41:12;;;;;;;5.07;3.05;;;;;;;16.45;95.85;100651.25;6167380;23;20025;-85
2023/09/20 06:43:39;;;;;;;8.68;2.83;;;;;;;16.47;96.07;100648.81;6167813;23;20025;-80
2023/09/20 06:46:09;;;;;;;5.13;2.70;;;;;;;16.49;96.13;100644.44;6192829;23;20017;-83
2023/09/20 06:48:37;;;;;;;11.27;3.00;;;;;;;16.54;96.08;100643.00;6191814;23;20108;-83
2023/09/20 06:51:05;;;;;;;6.78;2.80;;;;;;;16.60;94.96;100643.75;6219606;23;20017;-84
2023/09/20 06:53:32;;;;;;;5.05;2.60;;;;;;;16.67;95.04;100636.00;6219651;23;20028;-82
2023/09/20 06:55:59;;;;;;;5.25;2.83;;;;;;;16.84;94.97;100636.03;6220279;23;20013;-83
2023/09/20 06:58:26;;;;;;;4.30;3.30;;;;;;;16.98;93.75;100643.16;6192717;23;20017;-81
2023/09/20 07:00:53;;;;;;;3.95;2.55;;;;;;;17.03;93.11;100646.34;6219830;23;20048;-84
2023/09/20 07:03:20;;;;;;;3.78;2.78;;;;;;;16.99;93.36;100643.91;6218292;23;20025;-83
2023/09/20 07:05:48;;;;;;;5.85;2.50;;;;;;;16.94;93.29;100645.34;6219361;23;20013;-83
2023/09/20 07:08:15;;;;;;;4.90;2.67;;;;;;;16.94;94.17;100655.38;6219431;23;20021;-83
2023/09/20 07:10:42;;;;;;;4.10;2.50;;;;;;;16.90;93.78;100654.88;6219129;23;20046;-82
2023/09/20 07:13:10;;;;;;;6.78;2.65;;;;;;;16.89;94.34;100648.03;6191993;23;20021;-82
2023/09/20 07:15:39;;;;;;;9.05;2.47;;;;;;;16.89;94.84;100648.03;6218676;23;20055;-83
2023/09/20 07:18:12;;;;;;;6.85;3.00;;;;;;;16.89;94.30;100648.03;6191587;23;20109;-84
2023/09/20 07:20:41;;;;;;;7.13;3.00;;;;;;;16.89;94.27;100642.66;6193087;23;20013;-81
2023/09/20 07:23:12;;;;;;;7.40;2.70;;;;;;;16.88;94.73;100649.97;6219269;23;20027;-81
2023/09/20 07:25:40;;;;;;;4.78;2.53;;;;;;;16.89;94.47;100656.09;6219852;23;20517;-82
2023/09/20 07:28:07;;;;;;;4.43;2.95;;;;;;;16.87;94.53;100655.84;6194241;23;20530;-83
2023/09/20 07:30:41;;;;;;;4.80;2.75;;;;;;;16.86;93.80;100647.03;6219724;23;20076;-86
2023/09/20 07:33:12;;;;;;;5.10;2.85;;;;;;;16.88;94.49;100641.91;6193052;23;20029;-85
2023/09/20 07:35:47;;;;;;;2.80;2.60;;;;;;;16.89;93.41;100646.06;6220723;23;20021;-84
2023/09/20 07:38:36;;;;;;;4.05;3.03;;;;;;;16.90;94.05;100650.22;6193976;23;20017;-86
2023/09/20 07:41:17;;;;;;;4.55;3.17;;;;;;;16.95;93.87;100641.44;6193034;23;20021;-86
2023/09/20 07:43:51;;;;;;;3.23;2.97;;;;;;;16.96;93.65;100653.66;6193236;23;20372;-86
2023/09/20 07:46:20;;;;;;;3.03;2.65;;;;;;;16.97;93.67;100651.72;6219928;23;20099;-81
2023/09/20 07:48:52;;;;;;;3.65;2.88;;;;;;;16.95;94.22;100654.16;6193128;23;20068;-82
2023/09/20 07:51:20;;;;;;;5.70;2.90;;;;;;;16.95;93.46;100646.81;6219985;23;20441;-82
2023/09/20 07:53:53;;;;;;;6.10;3.05;;;;;;;16.95;93.67;100640.72;6192739;23;20079;-84
2023/09/20 07:56:21;;;;;;;6.97;3.08;;;;;;;16.96;93.82;100658.31;6219466;23;20017;-83
2023/09/20 07:58:48;;;;;;;3.35;2.95;;;;;;;17.00;93.99;100653.44;6168020;23;20068;-85
2023/09/20 08:01:21;;;;;;;4.20;3.00;;;;;;;17.08;94.23;100651.00;6218835;23;20395;-83
2023/09/20 08:03:54;;;;;;;4.38;2.67;;;;;;;17.13;94.10;100650.28;6196110;23;20066;-84
2023/09/20 08:06:25;;;;;;;9.05;3.17;;;;;;;17.21;93.04;100653.94;6192732;23;20426;-84
2023/09/20 08:08:52;;;;;;;3.67;3.13;;;;;;;17.25;92.74;100668.63;6219046;23;20096;-83
2023/09/20 08:11:19;;;;;;;9.35;3.28;;;;;;;17.29;91.78;100661.06;6166671;23;20013;-82
2023/09/20 08:13:55;;;;;;;7.40;3.17;;;;;;;17.35;92.17;100658.38;6219024;23;20021;-84
2023/09/20 08:16:25;;;;;;;3.65;3.35;;;;;;;17.46;90.78;100663.78;6217618;23;20040;-84
2023/09/20 08:19:21;;;;;;;5.90;3.03;;;;;;;17.58;91.00;100659.88;6195367;23;20021;-84
2023/09/20 08:21:48;;;;;;;2.88;2.67;;;;;;;17.71;90.45;100648.63;6219264;23;20482;-82
2023/09/20 09:00:24;;;;;;;3.95;2.38;;;;;;;18.15;88.85;100682.09;6191135;23;20021;-82
2023/09/20 09:02:54;;;;;;;2.10;1.90;;;;;;;18.12;87.89;100675.00;6167946;23;20511;-82
2023/09/20 09:05:24;;;;;;;5.63;2.30;;;;;;;18.10;88.00;100685.53;6191410;23;20021;-82
2023/09/20 09:07:51;;;;;;;6.65;2.53;;;;;;;18.08;88.21;100685.28;6192444;23;20017;-84
2023/09/20 09:10:18;;;;;;;7.25;2.55;;;;;;;18.07;88.55;100686.53;6192722;23;20100;-93
2023/09/20 09:12:45;;;;;;;6.80;2.42;;;;;;;18.04;88.14;100690.94;6193815;23;20017;-84
2023/09/20 09:15:15;;;;;;;2.42;2.22;;;;;;;18.02;88.57;100684.56;6191116;23;20024;-82
2023/09/20 09:17:46;;;;;;;4.70;2.55;;;;;;;18.04;88.51;100674.03;6218528;23;20434;-82
2023/09/20 09:20:21;;;;;;;4.30;2.78;;;;;;;18.08;87.92;100677.94;6192141;23;20434;-82
2023/09/20 09:22:52;;;;;;;9.68;2.20;;;;;;;18.14;88.69;100684.06;6192273;23;20021;-87
2023/09/20 09:25:24;;;;;;;3.97;2.40;;;;;;;18.21;88.26;100683.56;6191056;23;20017;-86
2023/09/20 09:27:53;;;;;;;6.75;2.25;;;;;;;18.24;86.89;100676.47;6191637;23;20021;-86
2023/09/20 09:30:19;;;;;;;4.63;2.30;;;;;;;18.21;87.19;100674.75;6192025;23;20072;-86
2023/09/20 09:32:47;;;;;;;2.35;2.10;;;;;;;18.19;87.16;100677.94;6192543;23;20072;-83
2023/09/20 09:35:16;;;;;;;4.35;2.55;;;;;;;18.21;87.11;100675.47;6191006;23;20013;-84
2023/09/20 09:37:47;;;;;;;;;;;;;;;18.18;88.33;100665.69;6192254;23;20045;-84
2023/09/20 09:40:14;;;;;;;2.97;2.22;;;;;;;18.18;87.86;100667.66;6218581;23;19923;-85
2023/09/20 09:42:43;;;;;;;6.18;2.38;;;;;;;18.14;88.04;100667.91;6190153;23;20021;-80
2023/09/20 09:45:10;;;;;;;6.00;2.50;;;;;;;18.14;87.67;100656.38;6192304;23;20440;-80
2023/09/20 09:47:37;;;;;;;3.00;2.67;;;;;;;18.11;87.94;100660.81;6191861;23;20085;-81
2023/09/20 09:50:06;;;;;;;4.53;2.50;;;;;;;18.12;88.07;100669.63;6191913;23;20020;-80
2023/09/20 09:52:38;;;;;;;6.40;2.67;;;;;;;18.10;87.79;100650.53;6191019;23;20017;-80
2023/09/20 09:55:06;;;;;;;7.53;2.90;;;;;;;18.09;86.88;100655.16;6191545;23;20013;-82
2023/09/20 09:57:32;;;;;;;3.30;2.63;;;;;;;18.12;87.30;100653.47;6217401;23;20017;-82
2023/09/20 10:00:00;;;;;;;3.75;2.45;;;;;;;18.29;87.84;100648.75;6191657;23;20025;-81
2023/09/20 10:02:41;;;;;;;7.18;2.47;;;;;;;18.55;86.68;100651.84;6218553;23;20466;-83
2023/09/20 10:05:12;;;;;;;7.35;2.65;;;;;;;18.87;85.30;100646.06;6191194;23;20021;-84
2023/09/20 10:07:44;;;;;;;4.75;2.60;;;;;;;19.02;84.10;100645.75;6166831;23;20025;-85
2023/09/20 10:10:16;;;;;;;6.85;2.90;;;;;;;19.20;83.53;100650.53;6191731;23;20027;-78
2023/09/20 10:12:48;;;;;;;5.30;2.67;;;;;;;19.22;84.54;100646.09;6217600;23;20017;-79
2023/09/20 10:15:16;;;;;;;5.53;2.30;;;;;;;19.19;82.97;100639.00;6218222;23;20009;-81
2023/09/20 10:17:59;;;;;;;3.65;2.60;;;;;;;19.21;83.80;100639.22;6218473;23;20017;-84
2023/09/20 10:21:04;;;;;;;5.82;2.47;;;;;;;19.24;82.81;100643.63;6219203;23;20411;-88
2023/09/20 10:23:35;;;;;;;2.53;2.22;;;;;;;19.27;82.48;100636.50;6218022;23;20084;-81
2023/09/20 10:26:01;;;;;;;5.88;2.47;;;;;;;19.29;83.52;100645.56;6190838;23;20021;-81
2023/09/20 10:28:40;;;;;;;6.40;2.83;;;;;;;19.30;82.64;100635.50;6217507;23;20017;-86
2023/09/20 10:31:07;;;;;;;2.70;2.50;;;;;;;19.31;83.20;100637.69;6191623;23;20502;-80
2023/09/20 10:33:45;;;;;;;4.05;2.80;;;;;;;19.38;82.99;100635.69;6217739;23;20017;-81
2023/09/20 10:36:19;;;;;;;4.38;2.55;;;;;;;19.33;82.30;100626.41;6217728;23;20032;-80
2023/09/20 10:38:47;;;;;;;6.55;2.63;;;;;;;19.38;82.63;100631.03;6217927;23;20383;-80
2023/09/20 10:41:17;;;;;;;2.50;2.30;;;;;;;19.39;82.18;100632.50;6190625;23;20028;-80
2023/09/20 10:43:48;;;;;;;4.63;2.50;;;;;;;19.28;81.28;100633.28;6192296;23;20077;-80
2023/09/20 10:46:18;;;;;;;13.48;2.63;;;;;;;19.20;80.51;100623.53;6219200;23;20014;-79
2023/09/20 10:48:49;;;;;;;4.65;2.70;;;;;;;19.17;80.58;100629.97;6167664;23;20022;-78
2023/09/20 10:51:44;;;;;;;4.60;2.38;;;;;;;19.13;81.07;100635.63;6192757;23;20021;-79
2023/09/20 10:54:19;;;;;;;4.90;2.40;;;;;;;19.21;81.85;100628.44;6192107;23;20020;-79
2023/09/20 10:56:54;;;;;;;4.95;2.50;;;;;;;19.32;80.92;100627.63;6191755;23;20071;-79
2023/09/20 10:59:25;;;;;;;4.20;2.35;;;;;;;19.50;80.02;100620.88;6218536;23;20040;-79
2023/09/20 11:02:00;;;;;;;4.80;2.40;;;;;;;19.53;79.30;100617.94;6192883;23;20021;-79
2023/09/20 11:04:28;;;;;;;5.80;2.40;;;;;;;19.67;79.79;100618.78;6191930;23;20080;-84
2023/09/20 11:06:59;;;;;;;3.25;2.35;;;;;;;19.79;78.86;100614.72;6219852;23;20013;-85
2023/09/20 11:09:31;;;;;;;5.40;2.47;;;;;;;19.82;78.44;100613.72;6218334;23;20084;-83
2023/09/20 11:12:06;;;;;;;3.72;2.22;;;;;;;19.88;79.37;100608.25;6219455;23;20017;-83
2023/09/20 11:14:35;;;;;;;3.70;2.70;;;;;;;20.04;78.47;100612.00;6217684;23;20087;-83
2023/09/20 11:17:07;;;;;;;6.97;2.70;;;;;;;20.41;78.41;100595.13;6218644;23;20092;-83
2023/09/20 11:19:35;;;;;;;4.38;2.20;;;;;;;20.58;75.73;100593.69;6218549;23;20029;-83
2023/09/20 11:22:03;;;;;;;3.30;2.20;;;;;;;20.60;75.73;100591.19;6219205;23;20096;-83
2023/09/20 11:24:29;;;;;;;3.22;2.55;;;;;;;20.72;76.22;100593.75;6217956;23;20514;-82
2023/09/20 11:26:57;;;;;;;5.32;3.00;;;;;;;21.00;74.61;100591.38;6192689;23;20444;-83
2023/09/20 11:29:26;;;;;;;2.95;2.65;;;;;;;21.01;74.31;100594.81;6221060;23;20025;-83
2023/09/20 11:31:58;;;;;;;3.25;2.33;;;;;;;20.87;73.38;100591.31;6219614;23;20044;-84
2023/09/20 11:34:25;;;;;;;;;;;;;;;20.84;76.74;100601.19;6167270;23;20013;-83
2023/09/20 11:36:56;;;;;;;6.65;2.60;;;;;;;20.83;74.30;100596.28;6219814;23;20335;-83
2023/09/20 11:39:28;;;;;;;2.70;2.50;;;;;;;20.79;74.06;100599.31;6217988;23;20021;-83
2023/09/20 11:42:01;;;;;;;3.42;2.60;;;;;;;20.75;73.83;100598.88;6192563;23;20025;-84
2023/09/20 11:44:28;;;;;;;3.20;2.35;;;;;;;20.67;73.53;100581.03;6192083;23;20028;-83
2023/09/20 11:46:57;;;;;;;5.25;2.83;;;;;;;20.61;74.37;100581.13;6219592;23;20466;-85
2023/09/20 11:49:26;;;;;;;3.22;2.70;;;;;;;20.71;73.67;100573.38;6218123;23;20899;-83
2023/09/20 11:51:54;;;;;;;7.32;2.67;;;;;;;20.82;73.79;100576.63;6218441;23;20014;-83
2023/09/20 11:54:32;;;;;;;5.05;2.30;;;;;;;21.03;74.09;100573.38;6217821;23;20443;-83
2023/09/20 11:57:02;;;;;;;3.75;2.58;;;;;;;21.02;73.00;100574.63;6219180;23;20023;-83
2023/09/20 11:59:29;;;;;;;4.15;2.97;;;;;;;21.03;72.54;100574.09;6191917;23;20032;-83
2023/09/20 12:01:56;;;;;;;4.10;2.75;;;;;;;21.15;72.60;100566.53;6167566;23;20107;-83
2023/09/20 12:04:22;;;;;;;4.18;2.53;;;;;;;21.21;71.19;100572.59;6218119;23;20411;-83
2023/09/20 12:06:51;;;;;;;4.05;2.70;;;;;;;21.27;70.97;100570.53;6219159;23;20025;-83
2023/09/20 12:09:18;;;;;;;3.95;2.85;;;;;;;21.27;70.35;100571.25;6192087;23;20420;-82
2023/09/20 12:11:45;;;;;;;3.85;2.47;;;;;;;21.16;69.00;100571.44;6192757;23;20024;-84